sensor_id;sensor_type;location;lat;lon;timestamp;temperature;humidity
44069;DHT22;29738;51.234;5.484;2022-08-01T00:01:35;20.10;99.90
44069;DHT22;29738;51.234;5.484;2022-08-01T00:04:01;20.20;99.90
44069;DHT22;29738;51.234;5.484;2022-08-01T00:06:27;20.10;99.90
44069;DHT22;29738;51.234;5.484;2022-08-01T00:08:52;20.00;99.90
44069;DHT22;29738;51.234;5.484;2022-08-01T00:11:18;20.00;99.90
44069;DHT22;29738;51.234;5.484;2022-08-01T00:13:44;20.10;99.90
44069;DHT22;29738;51.234;5.484;2022-08-01T00:16:10;20.20;99.90
44069;DHT22;29738;51.234;5.484;2022-08-01T00:18:36;20.20;99.90
44069;DHT22;29738;51.234;5.484;2022-08-01T00:21:03;20.40;99.90
44069;DHT22;29738;51.234;5.484;2022-08-01T00:23:29;20.30;99.90
44069;DHT22;29738;51.234;5.484;2022-08-01T00:25:55;20.40;99.90
44069;DHT22;29738;51.234;5.484;2022-08-01T00:28:21;20.40;99.90
44069;DHT22;29738;51.234;5.484;2022-08-01T00:30:47;20.30;99.90
44069;DHT22;29738;51.234;5.484;2022-08-01T00:33:12;20.20;99.90
44069;DHT22;29738;51.234;5.484;2022-08-01T00:35:38;20.20;99.90
44069;DHT22;29738;51.234;5.484;2022-08-01T00:38:04;20.20;99.90
44069;DHT22;29738;51.234;5.484;2022-08-01T00:40:30;20.20;99.90
44069;DHT22;29738;51.234;5.484;2022-08-01T00:42:56;20.20;99.90
44069;DHT22;29738;51.234;5.484;2022-08-01T00:45:21;20.10;99.90
44069;DHT22;29738;51.234;5.484;2022-08-01T00:47:47;20.10;99.90
44069;DHT22;29738;51.234;5.484;2022-08-01T00:50:13;20.00;99.90
44069;DHT22;29738;51.234;5.484;2022-08-01T00:52:40;20.00;99.90
44069;DHT22;29738;51.234;5.484;2022-08-01T00:55:07;20.00;99.90
44069;DHT22;29738;51.234;5.484;2022-08-01T00:57:33;19.90;99.90
44069;DHT22;29738;51.234;5.484;2022-08-01T00:59:59;20.00;99.90
44069;DHT22;29738;51.234;5.484;2022-08-01T01:02:25;19.90;99.90
44069;DHT22;29738;51.234;5.484;2022-08-01T01:04:50;19.80;99.90
44069;DHT22;29738;51.234;5.484;2022-08-01T01:07:44;19.80;99.90
44069;DHT22;29738;51.234;5.484;2022-08-01T01:10:25;19.90;99.90
44069;DHT22;29738;51.234;5.484;2022-08-01T01:18:12;20.10;99.90
44069;DHT22;29738;51.234;5.484;2022-08-01T01:20:41;20.10;99.90
44069;DHT22;29738;51.234;5.484;2022-08-01T01:25:54;20.10;99.90
44069;DHT22;29738;51.234;5.484;2022-08-01T01:31:43;20.10;99.90
44069;DHT22;29738;51.234;5.484;2022-08-01T01:34:12;20.20;99.90
44069;DHT22;29738;51.234;5.484;2022-08-01T01:36:39;20.20;99.90
44069;DHT22;29738;51.234;5.484;2022-08-01T01:39:05;20.20;99.90
44069;DHT22;29738;51.234;5.484;2022-08-01T01:41:33;20.10;99.90
44069;DHT22;29738;51.234;5.484;2022-08-01T01:44:00;20.00;99.90
44069;DHT22;29738;51.234;5.484;2022-08-01T01:46:28;20.10;99.90
44069;DHT22;29738;51.234;5.484;2022-08-01T01:48:55;20.10;99.90
44069;DHT22;29738;51.234;5.484;2022-08-01T01:51:24;20.10;99.90
44069;DHT22;29738;51.234;5.484;2022-08-01T01:53:53;20.10;99.90
44069;DHT22;29738;51.234;5.484;2022-08-01T01:56:20;20.00;99.90
44069;DHT22;29738;51.234;5.484;2022-08-01T01:58:52;20.10;99.90
44069;DHT22;29738;51.234;5.484;2022-08-01T02:01:19;20.10;99.90
44069;DHT22;29738;51.234;5.484;2022-08-01T02:03:48;20.10;99.90
44069;DHT22;29738;51.234;5.484;2022-08-01T02:06:16;20.20;99.90
44069;DHT22;29738;51.234;5.484;2022-08-01T02:08:43;20.20;99.90
44069;DHT22;29738;51.234;5.484;2022-08-01T02:11:09;20.30;99.90
44069;DHT22;29738;51.234;5.484;2022-08-01T02:13:53;20.30;99.90
44069;DHT22;29738;51.234;5.484;2022-08-01T02:16:23;20.40;99.90
44069;DHT22;29738;51.234;5.484;2022-08-01T02:18:50;20.20;99.90
44069;DHT22;29738;51.234;5.484;2022-08-01T02:21:25;20.10;99.90
44069;DHT22;29738;51.234;5.484;2022-08-01T02:23:51;20.00;99.90
44069;DHT22;29738;51.234;5.484;2022-08-01T02:26:18;20.00;99.90
44069;DHT22;29738;51.234;5.484;2022-08-01T02:28:51;20.00;99.90
44069;DHT22;29738;51.234;5.484;2022-08-01T02:31:21;19.80;99.90
44069;DHT22;29738;51.234;5.484;2022-08-01T02:34:02;19.90;99.90
44069;DHT22;29738;51.234;5.484;2022-08-01T02:36:33;19.70;99.90
44069;DHT22;29738;51.234;5.484;2022-08-01T02:39:02;19.70;99.90
44069;DHT22;29738;51.234;5.484;2022-08-01T02:41:28;19.80;99.90
44069;DHT22;29738;51.234;5.484;2022-08-01T02:43:59;19.90;99.90
44069;DHT22;29738;51.234;5.484;2022-08-01T02:46:37;19.80;99.90
44069;DHT22;29738;51.234;5.484;2022-08-01T02:49:07;19.80;99.90
44069;DHT22;29738;51.234;5.484;2022-08-01T02:51:35;19.80;99.90
44069;DHT22;29738;51.234;5.484;2022-08-01T02:54:02;19.60;99.90
44069;DHT22;29738;51.234;5.484;2022-08-01T02:56:30;19.60;99.90
44069;DHT22;29738;51.234;5.484;2022-08-01T02:59:03;19.50;99.90
44069;DHT22;29738;51.234;5.484;2022-08-01T03:01:30;19.50;99.90
44069;DHT22;29738;51.234;5.484;2022-08-01T03:03:57;19.60;99.90
44069;DHT22;29738;51.234;5.484;2022-08-01T03:06:23;19.60;99.90
44069;DHT22;29738;51.234;5.484;2022-08-01T03:08:51;19.70;99.90
44069;DHT22;29738;51.234;5.484;2022-08-01T03:11:18;19.90;99.90
44069;DHT22;29738;51.234;5.484;2022-08-01T03:13:45;19.90;99.90
44069;DHT22;29738;51.234;5.484;2022-08-01T03:16:13;19.90;99.90
44069;DHT22;29738;51.234;5.484;2022-08-01T03:18:41;19.90;99.90
44069;DHT22;29738;51.234;5.484;2022-08-01T03:21:12;19.90;99.90
44069;DHT22;29738;51.234;5.484;2022-08-01T03:23:40;20.00;99.90
44069;DHT22;29738;51.234;5.484;2022-08-01T03:26:07;20.00;99.90
44069;DHT22;29738;51.234;5.484;2022-08-01T03:28:33;19.90;99.90
44069;DHT22;29738;51.234;5.484;2022-08-01T03:31:02;19.90;99.90
44069;DHT22;29738;51.234;5.484;2022-08-01T03:33:28;19.90;99.90
44069;DHT22;29738;51.234;5.484;2022-08-01T03:35:55;19.80;99.90
44069;DHT22;29738;51.234;5.484;2022-08-01T03:38:25;19.70;99.90
44069;DHT22;29738;51.234;5.484;2022-08-01T03:41:20;19.90;99.90
44069;DHT22;29738;51.234;5.484;2022-08-01T03:43:59;20.10;99.90
44069;DHT22;29738;51.234;5.484;2022-08-01T03:46:34;19.90;99.90
44069;DHT22;29738;51.234;5.484;2022-08-01T03:49:06;19.90;99.90
44069;DHT22;29738;51.234;5.484;2022-08-01T03:51:33;20.00;99.90
44069;DHT22;29738;51.234;5.484;2022-08-01T03:54:00;20.10;99.90
44069;DHT22;29738;51.234;5.484;2022-08-01T03:56:27;20.10;99.90
44069;DHT22;29738;51.234;5.484;2022-08-01T03:58:59;20.20;99.90
44069;DHT22;29738;51.234;5.484;2022-08-01T04:01:26;20.20;99.90
44069;DHT22;29738;51.234;5.484;2022-08-01T04:03:52;20.10;99.90
44069;DHT22;29738;51.234;5.484;2022-08-01T04:06:18;20.10;99.90
44069;DHT22;29738;51.234;5.484;2022-08-01T04:08:44;19.90;99.90
44069;DHT22;29738;51.234;5.484;2022-08-01T04:11:21;19.70;99.90
44069;DHT22;29738;51.234;5.484;2022-08-01T04:13:48;19.70;99.90
44069;DHT22;29738;51.234;5.484;2022-08-01T04:16:13;19.70;99.90
44069;DHT22;29738;51.234;5.484;2022-08-01T04:18:39;19.80;99.90
44069;DHT22;29738;51.234;5.484;2022-08-01T04:21:05;20.00;99.90
44069;DHT22;29738;51.234;5.484;2022-08-01T04:23:31;20.10;99.90
44069;DHT22;29738;51.234;5.484;2022-08-01T04:25:59;20.20;99.90
44069;DHT22;29738;51.234;5.484;2022-08-01T04:28:31;20.20;99.90
44069;DHT22;29738;51.234;5.484;2022-08-01T04:31:00;20.40;99.90
44069;DHT22;29738;51.234;5.484;2022-08-01T04:33:28;20.20;99.90
44069;DHT22;29738;51.234;5.484;2022-08-01T04:35:56;20.10;99.90
44069;DHT22;29738;51.234;5.484;2022-08-01T04:38:25;20.20;99.90
44069;DHT22;29738;51.234;5.484;2022-08-01T04:40:54;20.30;99.90
44069;DHT22;29738;51.234;5.484;2022-08-01T04:43:22;20.30;99.90
44069;DHT22;29738;51.234;5.484;2022-08-01T04:45:49;20.40;99.90
44069;DHT22;29738;51.234;5.484;2022-08-01T04:48:17;20.30;99.90
44069;DHT22;29738;51.234;5.484;2022-08-01T04:50:45;20.40;99.90
44069;DHT22;29738;51.234;5.484;2022-08-01T04:53:16;20.30;99.90
44069;DHT22;29738;51.234;5.484;2022-08-01T04:55:43;20.30;99.90
44069;DHT22;29738;51.234;5.484;2022-08-01T04:58:10;20.50;99.90
44069;DHT22;29738;51.234;5.484;2022-08-01T05:00:36;20.20;99.90
44069;DHT22;29738;51.234;5.484;2022-08-01T05:03:02;20.40;99.90
44069;DHT22;29738;51.234;5.484;2022-08-01T05:05:28;20.10;99.90
44069;DHT22;29738;51.234;5.484;2022-08-01T05:07:54;20.30;99.90
44069;DHT22;29738;51.234;5.484;2022-08-01T05:10:21;20.40;99.90
44069;DHT22;29738;51.234;5.484;2022-08-01T05:12:47;20.30;99.90
44069;DHT22;29738;51.234;5.484;2022-08-01T05:15:12;20.20;99.90
44069;DHT22;29738;51.234;5.484;2022-08-01T05:17:38;20.00;99.90
44069;DHT22;29738;51.234;5.484;2022-08-01T05:20:04;19.80;99.90
44069;DHT22;29738;51.234;5.484;2022-08-01T05:22:32;19.90;99.90
44069;DHT22;29738;51.234;5.484;2022-08-01T05:24:57;19.90;99.90
44069;DHT22;29738;51.234;5.484;2022-08-01T05:27:25;20.00;99.90
44069;DHT22;29738;51.234;5.484;2022-08-01T05:29:51;20.00;99.90
44069;DHT22;29738;51.234;5.484;2022-08-01T05:32:17;20.30;99.90
44069;DHT22;29738;51.234;5.484;2022-08-01T05:34:43;20.40;99.90
44069;DHT22;29738;51.234;5.484;2022-08-01T05:37:09;20.60;99.90
44069;DHT22;29738;51.234;5.484;2022-08-01T05:39:35;20.70;99.90
44069;DHT22;29738;51.234;5.484;2022-08-01T05:42:00;20.50;99.90
44069;DHT22;29738;51.234;5.484;2022-08-01T05:44:26;20.40;99.90
44069;DHT22;29738;51.234;5.484;2022-08-01T05:46:52;20.20;99.90
44069;DHT22;29738;51.234;5.484;2022-08-01T05:49:18;20.20;99.90
44069;DHT22;29738;51.234;5.484;2022-08-01T05:51:43;20.30;99.90
44069;DHT22;29738;51.234;5.484;2022-08-01T05:54:09;20.30;99.90
44069;DHT22;29738;51.234;5.484;2022-08-01T05:56:35;20.40;99.90
44069;DHT22;29738;51.234;5.484;2022-08-01T05:59:01;20.40;99.90
44069;DHT22;29738;51.234;5.484;2022-08-01T06:01:27;20.40;99.90
44069;DHT22;29738;51.234;5.484;2022-08-01T06:03:53;20.50;99.90
44069;DHT22;29738;51.234;5.484;2022-08-01T06:06:20;20.60;99.90
44069;DHT22;29738;51.234;5.484;2022-08-01T06:08:46;20.70;99.90
44069;DHT22;29738;51.234;5.484;2022-08-01T06:11:12;20.70;99.90
44069;DHT22;29738;51.234;5.484;2022-08-01T06:13:38;20.60;99.90
44069;DHT22;29738;51.234;5.484;2022-08-01T06:16:04;20.70;99.90
44069;DHT22;29738;51.234;5.484;2022-08-01T06:18:30;20.80;99.90
44069;DHT22;29738;51.234;5.484;2022-08-01T06:20:56;21.00;99.90
44069;DHT22;29738;51.234;5.484;2022-08-01T06:23:22;21.00;99.90
44069;DHT22;29738;51.234;5.484;2022-08-01T06:25:48;21.10;99.90
44069;DHT22;29738;51.234;5.484;2022-08-01T06:28:14;21.20;99.90
44069;DHT22;29738;51.234;5.484;2022-08-01T06:30:39;21.30;99.90
44069;DHT22;29738;51.234;5.484;2022-08-01T06:33:05;21.40;99.90
44069;DHT22;29738;51.234;5.484;2022-08-01T06:35:32;21.30;99.90
44069;DHT22;29738;51.234;5.484;2022-08-01T06:37:57;21.30;99.90
44069;DHT22;29738;51.234;5.484;2022-08-01T06:40:23;21.10;99.90
44069;DHT22;29738;51.234;5.484;2022-08-01T06:42:50;21.40;99.90
44069;DHT22;29738;51.234;5.484;2022-08-01T06:45:16;21.70;99.90
44069;DHT22;29738;51.234;5.484;2022-08-01T06:47:43;21.80;99.90
44069;DHT22;29738;51.234;5.484;2022-08-01T06:50:10;22.10;99.90
44069;DHT22;29738;51.234;5.484;2022-08-01T06:52:37;21.60;99.90
44069;DHT22;29738;51.234;5.484;2022-08-01T06:55:03;21.20;99.90
44069;DHT22;29738;51.234;5.484;2022-08-01T06:57:29;21.30;99.90
44069;DHT22;29738;51.234;5.484;2022-08-01T06:59:55;21.50;99.90
44069;DHT22;29738;51.234;5.484;2022-08-01T07:02:22;21.40;99.90
44069;DHT22;29738;51.234;5.484;2022-08-01T07:04:48;21.20;99.90
44069;DHT22;29738;51.234;5.484;2022-08-01T07:07:14;21.40;99.90
44069;DHT22;29738;51.234;5.484;2022-08-01T07:09:39;21.30;99.90
44069;DHT22;29738;51.234;5.484;2022-08-01T07:12:07;21.30;99.90
44069;DHT22;29738;51.234;5.484;2022-08-01T07:14:33;21.40;99.90
44069;DHT22;29738;51.234;5.484;2022-08-01T07:16:58;21.60;99.90
44069;DHT22;29738;51.234;5.484;2022-08-01T07:19:25;21.80;99.90
44069;DHT22;29738;51.234;5.484;2022-08-01T07:21:51;21.70;99.90
44069;DHT22;29738;51.234;5.484;2022-08-01T07:24:17;21.80;99.90
44069;DHT22;29738;51.234;5.484;2022-08-01T07:26:45;21.90;99.90
44069;DHT22;29738;51.234;5.484;2022-08-01T07:29:11;22.00;99.90
44069;DHT22;29738;51.234;5.484;2022-08-01T07:31:37;22.30;99.90
44069;DHT22;29738;51.234;5.484;2022-08-01T07:34:03;22.50;99.90
44069;DHT22;29738;51.234;5.484;2022-08-01T07:36:29;22.70;99.90
44069;DHT22;29738;51.234;5.484;2022-08-01T07:38:55;22.80;99.90
44069;DHT22;29738;51.234;5.484;2022-08-01T07:41:21;22.70;99.90
44069;DHT22;29738;51.234;5.484;2022-08-01T07:43:47;22.90;99.90
44069;DHT22;29738;51.234;5.484;2022-08-01T07:46:16;23.00;99.90
44069;DHT22;29738;51.234;5.484;2022-08-01T07:48:42;23.10;99.90
44069;DHT22;29738;51.234;5.484;2022-08-01T07:51:08;22.70;99.90
44069;DHT22;29738;51.234;5.484;2022-08-01T07:53:36;22.80;99.90
44069;DHT22;29738;51.234;5.484;2022-08-01T07:56:02;23.00;99.90
44069;DHT22;29738;51.234;5.484;2022-08-01T07:58:30;22.60;99.90
44069;DHT22;29738;51.234;5.484;2022-08-01T08:00:56;22.40;99.90
44069;DHT22;29738;51.234;5.484;2022-08-01T08:03:21;22.40;99.90
44069;DHT22;29738;51.234;5.484;2022-08-01T08:05:47;22.50;99.90
44069;DHT22;29738;51.234;5.484;2022-08-01T08:08:13;22.30;99.90
44069;DHT22;29738;51.234;5.484;2022-08-01T08:10:41;22.40;99.90
44069;DHT22;29738;51.234;5.484;2022-08-01T08:13:06;22.60;99.90
44069;DHT22;29738;51.234;5.484;2022-08-01T08:15:32;23.00;99.90
44069;DHT22;29738;51.234;5.484;2022-08-01T08:17:58;23.00;99.90
44069;DHT22;29738;51.234;5.484;2022-08-01T08:20:24;22.90;99.90
44069;DHT22;29738;51.234;5.484;2022-08-01T08:22:55;23.10;99.90
44069;DHT22;29738;51.234;5.484;2022-08-01T08:25:21;22.80;99.90
44069;DHT22;29738;51.234;5.484;2022-08-01T08:27:47;22.50;99.90
44069;DHT22;29738;51.234;5.484;2022-08-01T08:30:14;22.50;99.90
44069;DHT22;29738;51.234;5.484;2022-08-01T08:32:40;22.70;99.90
44069;DHT22;29738;51.234;5.484;2022-08-01T08:35:07;22.90;99.90
44069;DHT22;29738;51.234;5.484;2022-08-01T08:37:34;23.10;99.90
44069;DHT22;29738;51.234;5.484;2022-08-01T08:40:00;23.30;99.90
44069;DHT22;29738;51.234;5.484;2022-08-01T08:42:26;23.40;99.90
44069;DHT22;29738;51.234;5.484;2022-08-01T08:44:52;23.60;99.90
44069;DHT22;29738;51.234;5.484;2022-08-01T08:47:22;23.40;99.90
44069;DHT22;29738;51.234;5.484;2022-08-01T08:49:51;23.50;99.90
44069;DHT22;29738;51.234;5.484;2022-08-01T08:52:19;23.90;99.90
44069;DHT22;29738;51.234;5.484;2022-08-01T08:54:46;24.10;99.90
44069;DHT22;29738;51.234;5.484;2022-08-01T08:57:14;23.90;99.90
44069;DHT22;29738;51.234;5.484;2022-08-01T08:59:42;24.00;99.90
44069;DHT22;29738;51.234;5.484;2022-08-01T09:02:09;24.00;99.90
44069;DHT22;29738;51.234;5.484;2022-08-01T09:04:36;23.90;99.90
44069;DHT22;29738;51.234;5.484;2022-08-01T09:07:05;24.00;99.90
44069;DHT22;29738;51.234;5.484;2022-08-01T09:09:31;23.70;99.90
44069;DHT22;29738;51.234;5.484;2022-08-01T09:11:57;23.60;99.90
44069;DHT22;29738;51.234;5.484;2022-08-01T09:14:23;23.90;99.90
44069;DHT22;29738;51.234;5.484;2022-08-01T09:17:09;23.90;99.90
44069;DHT22;29738;51.234;5.484;2022-08-01T09:19:41;23.90;99.90
44069;DHT22;29738;51.234;5.484;2022-08-01T09:22:11;23.90;99.90
44069;DHT22;29738;51.234;5.484;2022-08-01T09:24:37;23.80;99.90
44069;DHT22;29738;51.234;5.484;2022-08-01T09:27:20;23.80;99.90
44069;DHT22;29738;51.234;5.484;2022-08-01T09:29:50;23.90;99.90
44069;DHT22;29738;51.234;5.484;2022-08-01T09:32:16;24.00;99.90
44069;DHT22;29738;51.234;5.484;2022-08-01T09:34:44;23.80;99.90
44069;DHT22;29738;51.234;5.484;2022-08-01T09:37:12;23.90;99.90
44069;DHT22;29738;51.234;5.484;2022-08-01T09:39:39;24.10;99.90
44069;DHT22;29738;51.234;5.484;2022-08-01T09:42:23;24.40;99.90
44069;DHT22;29738;51.234;5.484;2022-08-01T09:44:49;24.50;99.90
44069;DHT22;29738;51.234;5.484;2022-08-01T09:47:16;24.70;99.90
44069;DHT22;29738;51.234;5.484;2022-08-01T09:49:43;25.00;99.90
44069;DHT22;29738;51.234;5.484;2022-08-01T09:52:19;25.10;99.90
44069;DHT22;29738;51.234;5.484;2022-08-01T09:57:21;24.30;99.90
44069;DHT22;29738;51.234;5.484;2022-08-01T09:59:49;24.00;99.90
44069;DHT22;29738;51.234;5.484;2022-08-01T10:02:31;24.10;99.90
44069;DHT22;29738;51.234;5.484;2022-08-01T10:04:57;24.40;99.90
44069;DHT22;29738;51.234;5.484;2022-08-01T10:07:23;24.40;99.90
44069;DHT22;29738;51.234;5.484;2022-08-01T10:09:49;24.60;99.90
44069;DHT22;29738;51.234;5.484;2022-08-01T10:12:19;24.70;99.90
44069;DHT22;29738;51.234;5.484;2022-08-01T10:14:48;25.10;99.90
44069;DHT22;29738;51.234;5.484;2022-08-01T10:17:24;25.20;99.90
44069;DHT22;29738;51.234;5.484;2022-08-01T10:19:51;24.90;99.90
44069;DHT22;29738;51.234;5.484;2022-08-01T10:22:23;24.60;99.90
44069;DHT22;29738;51.234;5.484;2022-08-01T10:24:52;24.70;99.90
44069;DHT22;29738;51.234;5.484;2022-08-01T10:27:20;24.70;99.90
44069;DHT22;29738;51.234;5.484;2022-08-01T10:29:56;24.50;99.90
44069;DHT22;29738;51.234;5.484;2022-08-01T10:32:23;24.20;99.90
44069;DHT22;29738;51.234;5.484;2022-08-01T10:34:49;24.80;99.90
44069;DHT22;29738;51.234;5.484;2022-08-01T10:37:16;25.00;99.90
44069;DHT22;29738;51.234;5.484;2022-08-01T10:39:42;25.00;99.90
44069;DHT22;29738;51.234;5.484;2022-08-01T10:42:10;25.00;99.90
44069;DHT22;29738;51.234;5.484;2022-08-01T10:44:37;25.00;99.90
44069;DHT22;29738;51.234;5.484;2022-08-01T10:47:11;25.00;99.90
44069;DHT22;29738;51.234;5.484;2022-08-01T10:49:49;25.40;99.90
44069;DHT22;29738;51.234;5.484;2022-08-01T10:52:20;25.60;99.90
44069;DHT22;29738;51.234;5.484;2022-08-01T10:54:46;25.40;99.90
44069;DHT22;29738;51.234;5.484;2022-08-01T10:57:13;25.30;99.90
44069;DHT22;29738;51.234;5.484;2022-08-01T10:59:50;25.50;99.90
44069;DHT22;29738;51.234;5.484;2022-08-01T11:02:31;25.80;99.90
44069;DHT22;29738;51.234;5.484;2022-08-01T11:05:09;25.80;99.90
44069;DHT22;29738;51.234;5.484;2022-08-01T11:10:25;25.50;99.90
44069;DHT22;29738;51.234;5.484;2022-08-01T11:12:55;25.40;99.90
44069;DHT22;29738;51.234;5.484;2022-08-01T11:15:23;25.40;99.90
44069;DHT22;29738;51.234;5.484;2022-08-01T11:17:54;25.60;99.90
44069;DHT22;29738;51.234;5.484;2022-08-01T11:20:26;25.70;99.90
44069;DHT22;29738;51.234;5.484;2022-08-01T11:25:27;26.00;99.90
44069;DHT22;29738;51.234;5.484;2022-08-01T11:30:40;25.90;99.90
44069;DHT22;29738;51.234;5.484;2022-08-01T11:33:06;25.70;99.90
44069;DHT22;29738;51.234;5.484;2022-08-01T11:35:32;25.90;99.90
44069;DHT22;29738;51.234;5.484;2022-08-01T11:38:25;26.30;99.90
44069;DHT22;29738;51.234;5.484;2022-08-01T11:44:06;26.30;99.90
44069;DHT22;29738;51.234;5.484;2022-08-01T11:46:55;26.30;99.90
44069;DHT22;29738;51.234;5.484;2022-08-01T11:54:52;25.00;99.90
44069;DHT22;29738;51.234;5.484;2022-08-01T11:57:23;24.80;99.90
44069;DHT22;29738;51.234;5.484;2022-08-01T11:59:55;24.60;99.90
44069;DHT22;29738;51.234;5.484;2022-08-01T12:02:29;24.20;99.90
44069;DHT22;29738;51.234;5.484;2022-08-01T12:05:05;24.10;99.90
44069;DHT22;29738;51.234;5.484;2022-08-01T12:07:33;24.40;99.90
44069;DHT22;29738;51.234;5.484;2022-08-01T12:12:34;24.50;99.90
44069;DHT22;29738;51.234;5.484;2022-08-01T12:15:05;24.70;99.90
44069;DHT22;29738;51.234;5.484;2022-08-01T12:17:36;25.10;99.90
44069;DHT22;29738;51.234;5.484;2022-08-01T12:20:05;25.60;99.90
44069;DHT22;29738;51.234;5.484;2022-08-01T12:22:31;25.30;99.90
44069;DHT22;29738;51.234;5.484;2022-08-01T12:25:07;24.80;99.90
44069;DHT22;29738;51.234;5.484;2022-08-01T12:27:33;24.30;99.90
44069;DHT22;29738;51.234;5.484;2022-08-01T12:30:00;24.50;99.90
44069;DHT22;29738;51.234;5.484;2022-08-01T12:32:30;24.30;99.90
44069;DHT22;29738;51.234;5.484;2022-08-01T12:35:03;24.00;99.90
44069;DHT22;29738;51.234;5.484;2022-08-01T12:37:30;24.20;99.90
44069;DHT22;29738;51.234;5.484;2022-08-01T12:39:57;24.30;99.90
44069;DHT22;29738;51.234;5.484;2022-08-01T12:42:24;24.50;99.90
44069;DHT22;29738;51.234;5.484;2022-08-01T12:44:51;25.00;99.90
44069;DHT22;29738;51.234;5.484;2022-08-01T12:47:18;25.30;99.90
44069;DHT22;29738;51.234;5.484;2022-08-01T12:49:45;25.60;99.90
44069;DHT22;29738;51.234;5.484;2022-08-01T12:52:12;25.20;99.90
44069;DHT22;29738;51.234;5.484;2022-08-01T12:55:10;25.00;99.90
44069;DHT22;29738;51.234;5.484;2022-08-01T12:57:38;25.00;99.90
44069;DHT22;29738;51.234;5.484;2022-08-01T13:02:33;23.80;99.90
44069;DHT22;29738;51.234;5.484;2022-08-01T13:04:58;23.90;99.90
44069;DHT22;29738;51.234;5.484;2022-08-01T13:07:39;23.80;99.90
44069;DHT22;29738;51.234;5.484;2022-08-01T13:10:06;23.80;99.90
44069;DHT22;29738;51.234;5.484;2022-08-01T13:12:32;24.00;99.90
44069;DHT22;29738;51.234;5.484;2022-08-01T13:14:58;23.90;99.90
44069;DHT22;29738;51.234;5.484;2022-08-01T13:17:33;24.30;99.90
44069;DHT22;29738;51.234;5.484;2022-08-01T13:20:04;24.20;99.90
44069;DHT22;29738;51.234;5.484;2022-08-01T13:22:35;24.30;99.90
44069;DHT22;29738;51.234;5.484;2022-08-01T13:25:12;24.60;99.90
44069;DHT22;29738;51.234;5.484;2022-08-01T13:27:38;24.80;99.90
44069;DHT22;29738;51.234;5.484;2022-08-01T13:30:18;25.00;99.90
44069;DHT22;29738;51.234;5.484;2022-08-01T13:32:59;24.90;99.90
44069;DHT22;29738;51.234;5.484;2022-08-01T13:35:26;25.10;99.90
44069;DHT22;29738;51.234;5.484;2022-08-01T13:37:52;25.00;99.90
44069;DHT22;29738;51.234;5.484;2022-08-01T13:40:26;24.80;99.90
44069;DHT22;29738;51.234;5.484;2022-08-01T13:42:52;24.50;99.90
44069;DHT22;29738;51.234;5.484;2022-08-01T13:45:19;24.40;99.90
44069;DHT22;29738;51.234;5.484;2022-08-01T13:47:44;24.70;99.90
44069;DHT22;29738;51.234;5.484;2022-08-01T13:50:10;24.80;99.90
44069;DHT22;29738;51.234;5.484;2022-08-01T13:52:36;25.10;99.90
44069;DHT22;29738;51.234;5.484;2022-08-01T13:55:02;25.10;99.90
44069;DHT22;29738;51.234;5.484;2022-08-01T13:57:28;25.20;99.90
44069;DHT22;29738;51.234;5.484;2022-08-01T13:59:54;25.50;99.90
44069;DHT22;29738;51.234;5.484;2022-08-01T14:02:20;24.70;99.90
44069;DHT22;29738;51.234;5.484;2022-08-01T14:04:46;24.80;99.90
44069;DHT22;29738;51.234;5.484;2022-08-01T14:07:12;25.30;99.90
44069;DHT22;29738;51.234;5.484;2022-08-01T14:09:38;25.60;99.90
44069;DHT22;29738;51.234;5.484;2022-08-01T14:12:04;25.50;99.90
44069;DHT22;29738;51.234;5.484;2022-08-01T14:14:30;26.00;99.90
44069;DHT22;29738;51.234;5.484;2022-08-01T14:16:56;26.30;99.90
44069;DHT22;29738;51.234;5.484;2022-08-01T14:19:22;25.90;99.90
44069;DHT22;29738;51.234;5.484;2022-08-01T14:21:47;25.00;99.90
44069;DHT22;29738;51.234;5.484;2022-08-01T14:24:13;24.80;99.90
44069;DHT22;29738;51.234;5.484;2022-08-01T14:26:39;24.80;99.90
44069;DHT22;29738;51.234;5.484;2022-08-01T14:29:05;25.10;99.90
44069;DHT22;29738;51.234;5.484;2022-08-01T14:31:30;25.00;99.90
44069;DHT22;29738;51.234;5.484;2022-08-01T14:33:56;24.80;99.90
44069;DHT22;29738;51.234;5.484;2022-08-01T14:36:22;25.20;99.90
44069;DHT22;29738;51.234;5.484;2022-08-01T14:38:48;25.70;99.90
44069;DHT22;29738;51.234;5.484;2022-08-01T14:41:14;26.10;99.90
44069;DHT22;29738;51.234;5.484;2022-08-01T14:43:40;26.10;99.90
44069;DHT22;29738;51.234;5.484;2022-08-01T14:46:06;26.20;99.90
44069;DHT22;29738;51.234;5.484;2022-08-01T14:48:35;25.90;99.90
44069;DHT22;29738;51.234;5.484;2022-08-01T14:51:01;25.30;99.90
44069;DHT22;29738;51.234;5.484;2022-08-01T14:53:29;24.70;99.90
44069;DHT22;29738;51.234;5.484;2022-08-01T14:55:55;24.40;99.90
44069;DHT22;29738;51.234;5.484;2022-08-01T14:58:21;24.30;99.90
44069;DHT22;29738;51.234;5.484;2022-08-01T15:00:47;24.40;99.90
44069;DHT22;29738;51.234;5.484;2022-08-01T15:03:13;24.20;99.90
44069;DHT22;29738;51.234;5.484;2022-08-01T15:05:39;24.50;99.90
44069;DHT22;29738;51.234;5.484;2022-08-01T15:08:06;24.40;99.90
44069;DHT22;29738;51.234;5.484;2022-08-01T15:10:32;24.50;99.90
44069;DHT22;29738;51.234;5.484;2022-08-01T15:12:58;24.70;99.90
44069;DHT22;29738;51.234;5.484;2022-08-01T15:15:26;24.70;99.90
44069;DHT22;29738;51.234;5.484;2022-08-01T15:17:52;24.50;99.90
44069;DHT22;29738;51.234;5.484;2022-08-01T15:20:18;24.50;99.90
44069;DHT22;29738;51.234;5.484;2022-08-01T15:22:44;25.10;99.90
44069;DHT22;29738;51.234;5.484;2022-08-01T15:25:10;25.90;99.90
44069;DHT22;29738;51.234;5.484;2022-08-01T15:27:36;26.40;99.90
44069;DHT22;29738;51.234;5.484;2022-08-01T15:30:03;25.80;99.90
44069;DHT22;29738;51.234;5.484;2022-08-01T15:32:29;24.80;99.90
44069;DHT22;29738;51.234;5.484;2022-08-01T15:34:55;24.50;99.90
44069;DHT22;29738;51.234;5.484;2022-08-01T15:37:20;24.50;99.90
44069;DHT22;29738;51.234;5.484;2022-08-01T15:39:46;24.90;99.90
44069;DHT22;29738;51.234;5.484;2022-08-01T15:42:15;25.30;99.90
44069;DHT22;29738;51.234;5.484;2022-08-01T15:44:41;25.40;99.90
44069;DHT22;29738;51.234;5.484;2022-08-01T15:47:08;25.70;99.90
44069;DHT22;29738;51.234;5.484;2022-08-01T15:49:34;25.50;99.90
44069;DHT22;29738;51.234;5.484;2022-08-01T15:52:05;25.10;99.90
44069;DHT22;29738;51.234;5.484;2022-08-01T15:54:32;25.00;99.90
44069;DHT22;29738;51.234;5.484;2022-08-01T15:56:58;25.20;99.90
44069;DHT22;29738;51.234;5.484;2022-08-01T15:59:24;25.80;99.90
44069;DHT22;29738;51.234;5.484;2022-08-01T16:01:50;25.70;99.90
44069;DHT22;29738;51.234;5.484;2022-08-01T16:04:17;25.10;99.90
44069;DHT22;29738;51.234;5.484;2022-08-01T16:06:44;24.80;99.90
44069;DHT22;29738;51.234;5.484;2022-08-01T16:09:09;24.60;99.90
44069;DHT22;29738;51.234;5.484;2022-08-01T16:11:35;24.80;99.90